HAL788 PHOG-KSFO
Flight info
| Callsign | HAL788 |
|---|---|
| Flight time | N/A |
| Altitude | 35000 |
| Route | CLUTS R465 CUNDU/N0444F370 R465 CINNY PIRAT3 |
| Aircraft | B738/M-SDE2E3FGHIRWXY/LB1 |
Departure
| Time | 2026-04-14 12:56 |
|---|---|
| Airport | Kahului International Airport (PHOG) |
Arrival
| Time | N/A |
|---|---|
| Airport | San Francisco International Airport (KSFO) |
| Time | Latitude | Longitude | Altitude | Speed | Heading |
|---|---|---|---|---|---|
| 2026-04-14 12:23 | 20.89388 | -156.43604 | 42 ft | 0 kts | 306° |
| 2026-04-14 12:47 | 20.89386 | -156.43600 | 42 ft | 2 kts | 306° |
| 2026-04-14 12:47 | 20.89377 | -156.43588 | 43 ft | 2 kts | 307° |
| 2026-04-14 12:47 | 20.89368 | -156.43574 | 43 ft | 2 kts | 307° |
| 2026-04-14 12:48 | 20.89359 | -156.43562 | 43 ft | 2 kts | 307° |
| 2026-04-14 12:48 | 20.89353 | -156.43553 | 43 ft | 2 kts | 307° |
| 2026-04-14 12:48 | 20.89346 | -156.43539 | 44 ft | 2 kts | 290° |
| 2026-04-14 12:48 | 20.89342 | -156.43524 | 44 ft | 2 kts | 278° |
| 2026-04-14 12:49 | 20.89341 | -156.43509 | 44 ft | 2 kts | 265° |
| 2026-04-14 12:49 | 20.89344 | -156.43494 | 44 ft | 2 kts | 252° |
| 2026-04-14 12:49 | 20.89350 | -156.43478 | 44 ft | 2 kts | 239° |
| 2026-04-14 12:49 | 20.89359 | -156.43466 | 43 ft | 2 kts | 226° |
| 2026-04-14 12:50 | 20.89367 | -156.43459 | 43 ft | 0 kts | 217° |
| 2026-04-14 12:50 | 20.89372 | -156.43454 | 43 ft | 0 kts | 214° |
| 2026-04-14 12:52 | 20.89371 | -156.43455 | 43 ft | 1 kts | 214° |
| 2026-04-14 12:52 | 20.89339 | -156.43478 | 44 ft | 8 kts | 215° |
| 2026-04-14 12:52 | 20.89281 | -156.43523 | 46 ft | 11 kts | 215° |
| 2026-04-14 12:52 | 20.89222 | -156.43565 | 48 ft | 9 kts | 216° |
| 2026-04-14 12:53 | 20.89175 | -156.43600 | 48 ft | 7 kts | 214° |
| 2026-04-14 12:53 | 20.89137 | -156.43630 | 49 ft | 6 kts | 214° |
| 2026-04-14 12:53 | 20.89105 | -156.43652 | 50 ft | 4 kts | 214° |
| 2026-04-14 12:53 | 20.89082 | -156.43668 | 50 ft | 3 kts | 215° |
| 2026-04-14 12:54 | 20.89055 | -156.43689 | 50 ft | 6 kts | 215° |
| 2026-04-14 12:54 | 20.89015 | -156.43710 | 51 ft | 5 kts | 184° |
| 2026-04-14 12:54 | 20.88996 | -156.43706 | 51 ft | 0 kts | 150° |
| 2026-04-14 12:55 | 20.88993 | -156.43703 | 51 ft | 3 kts | 147° |
| 2026-04-14 12:55 | 20.88966 | -156.43674 | 51 ft | 7 kts | 127° |
| 2026-04-14 12:55 | 20.88948 | -156.43625 | 52 ft | 7 kts | 76° |
| 2026-04-14 12:55 | 20.88973 | -156.43593 | 52 ft | 0 kts | 36° |
| 2026-04-14 12:56 | 20.89102 | -156.43497 | 50 ft | 67 kts | 35° |
| 2026-04-14 12:56 | 20.89738 | -156.43024 | 28 ft | 151 kts | 34° |
| 2026-04-14 12:56 | 20.90747 | -156.42279 | 439 ft | 178 kts | 36° |
| 2026-04-14 12:56 | 20.91697 | -156.41603 | 1394 ft | 169 kts | 34° |
| 2026-04-14 12:57 | 20.92681 | -156.40901 | 1974 ft | 177 kts | 41° |
| 2026-04-14 12:57 | 20.93605 | -156.39902 | 2324 ft | 203 kts | 55° |
| 2026-04-14 12:57 | 20.94292 | -156.38518 | 2863 ft | 221 kts | 75° |
| 2026-04-14 12:57 | 20.94565 | -156.36855 | 3414 ft | 241 kts | 90° |
| 2026-04-14 12:58 | 20.94548 | -156.34975 | 4002 ft | 261 kts | 89° |
| 2026-04-14 12:58 | 20.94900 | -156.33020 | 4746 ft | 276 kts | 71° |
| 2026-04-14 12:58 | 20.95784 | -156.31236 | 5868 ft | 274 kts | 56° |
| 2026-04-14 12:58 | 20.97003 | -156.29738 | 6883 ft | 275 kts | 43° |
| 2026-04-14 12:59 | 20.98532 | -156.28404 | 7377 ft | 296 kts | 35° |
| 2026-04-14 12:59 | 21.00302 | -156.27214 | 8285 ft | 298 kts | 28° |
| 2026-04-14 12:59 | 21.02029 | -156.26259 | 9680 ft | 278 kts | 22° |
| 2026-04-14 12:59 | 21.03805 | -156.25417 | 10376 ft | 288 kts | 20° |
| 2026-04-14 13:00 | 21.05691 | -156.24425 | 10827 ft | 309 kts | 27° |
| 2026-04-14 13:00 | 21.07582 | -156.23242 | 11250 ft | 328 kts | 25° |
| 2026-04-14 13:00 | 21.09716 | -156.22136 | 11744 ft | 345 kts | 23° |
| 2026-04-14 13:00 | 21.11889 | -156.20927 | 12240 ft | 362 kts | 27° |
| 2026-04-14 13:01 | 21.14060 | -156.19485 | 12748 ft | 378 kts | 32° |
| 2026-04-14 13:01 | 21.16264 | -156.17821 | 13216 ft | 394 kts | 34° |
| 2026-04-14 13:01 | 21.18498 | -156.16020 | 13630 ft | 410 kts | 36° |
| 2026-04-14 13:01 | 21.20797 | -156.14121 | 13989 ft | 427 kts | 36° |
| 2026-04-14 13:02 | 21.23179 | -156.12138 | 14720 ft | 432 kts | 36° |
| 2026-04-14 13:02 | 21.25578 | -156.10149 | 15430 ft | 438 kts | 36° |
| 2026-04-14 13:02 | 21.27979 | -156.08168 | 16177 ft | 442 kts | 36° |
| 2026-04-14 13:02 | 21.30433 | -156.06149 | 16912 ft | 446 kts | 36° |
| 2026-04-14 13:03 | 21.32886 | -156.04138 | 17592 ft | 451 kts | 36° |
| 2026-04-14 13:03 | 21.35403 | -156.02077 | 18290 ft | 455 kts | 36° |
| 2026-04-14 13:03 | 21.37946 | -155.99999 | 18881 ft | 461 kts | 36° |
| 2026-04-14 13:03 | 21.40493 | -155.97916 | 19598 ft | 463 kts | 36° |
| 2026-04-14 13:04 | 21.42855 | -155.95566 | 20155 ft | 471 kts | 49° |
| 2026-04-14 13:04 | 21.44925 | -155.92810 | 20774 ft | 474 kts | 50° |
| 2026-04-14 13:04 | 21.46752 | -155.89867 | 21366 ft | 477 kts | 62° |
| 2026-04-14 13:04 | 21.48338 | -155.86775 | 21900 ft | 482 kts | 58° |
| 2026-04-14 13:05 | 21.50332 | -155.83864 | 22497 ft | 485 kts | 49° |
| 2026-04-14 13:05 | 21.52517 | -155.81123 | 23044 ft | 488 kts | 53° |
| 2026-04-14 13:05 | 21.54315 | -155.78009 | 23577 ft | 492 kts | 59° |
| 2026-04-14 13:05 | 21.56170 | -155.74873 | 24037 ft | 498 kts | 58° |
| 2026-04-14 13:06 | 21.57651 | -155.71503 | 24487 ft | 503 kts | 70° |
| 2026-04-14 13:06 | 21.58882 | -155.67995 | 24988 ft | 507 kts | 66° |
| 2026-04-14 13:06 | 21.60524 | -155.64655 | 25556 ft | 509 kts | 57° |
| 2026-04-14 13:06 | 21.62591 | -155.61591 | 26032 ft | 513 kts | 49° |
| 2026-04-14 13:07 | 21.65104 | -155.58829 | 26693 ft | 511 kts | 40° |
| 2026-04-14 13:07 | 21.67905 | -155.56526 | 27330 ft | 509 kts | 32° |
| 2026-04-14 13:07 | 21.70961 | -155.54672 | 27971 ft | 507 kts | 24° |
| 2026-04-14 13:07 | 21.74172 | -155.53108 | 28677 ft | 504 kts | 21° |
| 2026-04-14 13:08 | 21.77395 | -155.51599 | 29391 ft | 502 kts | 21° |
| 2026-04-14 13:08 | 21.80550 | -155.50017 | 30148 ft | 499 kts | 24° |
| 2026-04-14 13:08 | 21.83621 | -155.48315 | 30849 ft | 497 kts | 26° |
| 2026-04-14 13:08 | 21.86615 | -155.46501 | 31424 ft | 498 kts | 28° |
| 2026-04-14 13:09 | 21.89603 | -155.44560 | 31892 ft | 501 kts | 30° |
| 2026-04-14 13:09 | 21.92553 | -155.42555 | 32331 ft | 504 kts | 31° |
| 2026-04-14 13:09 | 21.95495 | -155.40500 | 32736 ft | 506 kts | 31° |
| 2026-04-14 13:09 | 21.98473 | -155.38390 | 33238 ft | 507 kts | 32° |
| 2026-04-14 13:10 | 22.01457 | -155.36259 | 33784 ft | 508 kts | 32° |
| 2026-04-14 13:10 | 22.04423 | -155.34135 | 34570 ft | 503 kts | 31° |
| 2026-04-14 13:10 | 22.07321 | -155.32059 | 34980 ft | 502 kts | 31° |
| 2026-04-14 13:11 | 22.13098 | -155.27930 | 35011 ft | 493 kts | 31° |
| 2026-04-14 13:11 | 22.18837 | -155.23842 | 34981 ft | 494 kts | 31° |
| 2026-04-14 13:12 | 22.24588 | -155.19750 | 35008 ft | 496 kts | 30° |
| 2026-04-14 13:12 | 22.30351 | -155.15649 | 35007 ft | 495 kts | 31° |
| 2026-04-14 13:13 | 22.36097 | -155.11557 | 35010 ft | 496 kts | 30° |
| 2026-04-14 13:13 | 22.41862 | -155.07448 | 35007 ft | 498 kts | 31° |
| 2026-04-14 13:14 | 22.47641 | -155.03325 | 35012 ft | 497 kts | 31° |
| 2026-04-14 13:14 | 22.53392 | -154.99217 | 35010 ft | 498 kts | 31° |
| 2026-04-14 13:15 | 22.59172 | -154.95082 | 35008 ft | 496 kts | 31° |
| 2026-04-14 13:15 | 22.64921 | -154.90965 | 35011 ft | 498 kts | 31° |
| 2026-04-14 13:16 | 22.70714 | -154.86812 | 35010 ft | 499 kts | 31° |
| 2026-04-14 13:16 | 22.76484 | -154.82671 | 35010 ft | 497 kts | 31° |
| 2026-04-14 13:17 | 22.82219 | -154.78551 | 35015 ft | 499 kts | 30° |
| 2026-04-14 13:17 | 22.88026 | -154.74377 | 35015 ft | 499 kts | 30° |
| 2026-04-14 13:18 | 22.93816 | -154.70210 | 35014 ft | 499 kts | 30° |
| 2026-04-14 13:18 | 22.99367 | -154.65720 | 35015 ft | 501 kts | 40° |
| 2026-04-14 13:19 | 23.03922 | -154.59990 | 35010 ft | 503 kts | 52° |
| 2026-04-14 13:19 | 23.07863 | -154.53703 | 35021 ft | 506 kts | 56° |
| 2026-04-14 13:20 | 23.11678 | -154.47243 | 35018 ft | 507 kts | 56° |
| 2026-04-14 13:20 | 23.15481 | -154.40807 | 35017 ft | 506 kts | 56° |
| 2026-04-14 13:21 | 23.19317 | -154.34395 | 35004 ft | 507 kts | 56° |
| 2026-04-14 13:21 | 23.23177 | -154.27995 | 35011 ft | 507 kts | 56° |
| 2026-04-14 13:22 | 23.27052 | -154.21593 | 35005 ft | 506 kts | 56° |
| 2026-04-14 13:22 | 23.30919 | -154.15205 | 35013 ft | 508 kts | 56° |
| 2026-04-14 13:23 | 23.34789 | -154.08806 | 35023 ft | 508 kts | 55° |
| 2026-04-14 13:23 | 23.38669 | -154.02382 | 35009 ft | 506 kts | 56° |
| 2026-04-14 13:24 | 23.42533 | -153.95972 | 35012 ft | 507 kts | 56° |
| 2026-04-14 13:24 | 23.48316 | -153.86363 | 35010 ft | 507 kts | 56° |
| 2026-04-14 13:25 | 23.52186 | -153.79925 | 35015 ft | 511 kts | 56° |
| 2026-04-14 13:26 | 23.59928 | -153.67023 | 35029 ft | 508 kts | 55° |
| 2026-04-14 13:26 | 23.63785 | -153.60582 | 35027 ft | 511 kts | 56° |
| 2026-04-14 13:27 | 23.67636 | -153.54141 | 35025 ft | 509 kts | 56° |
| 2026-04-14 13:27 | 23.71501 | -153.47670 | 35032 ft | 509 kts | 55° |
| 2026-04-14 13:28 | 23.75355 | -153.41208 | 35033 ft | 509 kts | 56° |
| 2026-04-14 13:28 | 23.79203 | -153.34752 | 35038 ft | 509 kts | 56° |
| 2026-04-14 13:29 | 23.83087 | -153.28255 | 35040 ft | 510 kts | 55° |
| 2026-04-14 13:29 | 23.86982 | -153.21747 | 35040 ft | 509 kts | 56° |
| 2026-04-14 13:30 | 23.90852 | -153.15273 | 35041 ft | 509 kts | 56° |
| 2026-04-14 13:30 | 23.94709 | -153.08809 | 35053 ft | 509 kts | 56° |
| 2026-04-14 13:31 | 23.98573 | -153.02321 | 35049 ft | 509 kts | 56° |
| 2026-04-14 13:31 | 24.02415 | -152.95860 | 35050 ft | 510 kts | 56° |
| 2026-04-14 13:32 | 24.06276 | -152.89357 | 35048 ft | 508 kts | 55° |
| 2026-04-14 13:32 | 24.10121 | -152.82873 | 35040 ft | 509 kts | 55° |
| 2026-04-14 13:33 | 24.13957 | -152.76399 | 35051 ft | 509 kts | 55° |
| 2026-04-14 13:33 | 24.17816 | -152.69875 | 35045 ft | 508 kts | 55° |
| 2026-04-14 13:34 | 24.23572 | -152.60132 | 35057 ft | 511 kts | 55° |
| 2026-04-14 13:35 | 24.27410 | -152.53621 | 35051 ft | 509 kts | 55° |
| 2026-04-14 13:35 | 24.31263 | -152.47076 | 35046 ft | 510 kts | 55° |
| 2026-04-14 13:36 | 24.35099 | -152.40555 | 35051 ft | 508 kts | 55° |
| 2026-04-14 13:36 | 24.38898 | -152.34087 | 35045 ft | 509 kts | 55° |
| 2026-04-14 13:37 | 24.42726 | -152.27557 | 35052 ft | 507 kts | 56° |
| 2026-04-14 13:37 | 24.46532 | -152.21062 | 35051 ft | 509 kts | 56° |
| 2026-04-14 13:38 | 24.50345 | -152.14545 | 35042 ft | 508 kts | 56° |
| 2026-04-14 13:38 | 24.54175 | -152.07989 | 35050 ft | 506 kts | 55° |
| 2026-04-14 13:39 | 24.57948 | -152.01523 | 35044 ft | 507 kts | 55° |
| 2026-04-14 13:39 | 24.61757 | -151.94987 | 35053 ft | 507 kts | 55° |
| 2026-04-14 13:40 | 24.65545 | -151.88477 | 35053 ft | 505 kts | 55° |
| 2026-04-14 13:40 | 24.69309 | -151.81998 | 35051 ft | 506 kts | 55° |
| 2026-04-14 13:41 | 24.73075 | -151.75507 | 35058 ft | 505 kts | 55° |
| 2026-04-14 13:41 | 24.76862 | -151.68973 | 35059 ft | 504 kts | 55° |
| 2026-04-14 13:42 | 24.80619 | -151.62482 | 35067 ft | 506 kts | 55° |
| 2026-04-14 13:42 | 24.84369 | -151.55994 | 35063 ft | 502 kts | 55° |
| 2026-04-14 13:43 | 24.88119 | -151.49498 | 35062 ft | 504 kts | 55° |
| 2026-04-14 13:43 | 24.91845 | -151.43028 | 35056 ft | 501 kts | 55° |
| 2026-04-14 13:44 | 24.95575 | -151.36548 | 35055 ft | 500 kts | 55° |
| 2026-04-14 13:44 | 24.99320 | -151.30035 | 35068 ft | 502 kts | 55° |
| 2026-04-14 13:45 | 25.03025 | -151.23579 | 35072 ft | 501 kts | 55° |
| 2026-04-14 13:45 | 25.06756 | -151.17073 | 35063 ft | 502 kts | 55° |
| 2026-04-14 13:46 | 25.10478 | -151.10571 | 35073 ft | 501 kts | 55° |
| 2026-04-14 13:46 | 25.14211 | -151.04042 | 35074 ft | 502 kts | 55° |
| 2026-04-14 13:47 | 25.17935 | -150.97520 | 35077 ft | 502 kts | 55° |
| 2026-04-14 13:47 | 25.21638 | -150.91020 | 35073 ft | 502 kts | 55° |
| 2026-04-14 13:48 | 25.25336 | -150.84525 | 35079 ft | 502 kts | 55° |
| 2026-04-14 13:48 | 25.29044 | -150.78003 | 35079 ft | 502 kts | 55° |
| 2026-04-14 13:49 | 25.32744 | -150.71489 | 35077 ft | 502 kts | 55° |
| 2026-04-14 13:49 | 25.36464 | -150.64928 | 35082 ft | 502 kts | 55° |
| 2026-04-14 13:50 | 25.40162 | -150.58397 | 35082 ft | 502 kts | 55° |
| 2026-04-14 13:50 | 25.43850 | -150.51874 | 35091 ft | 503 kts | 55° |
| 2026-04-14 13:51 | 25.47554 | -150.45312 | 35090 ft | 502 kts | 56° |
| 2026-04-14 13:51 | 25.51247 | -150.38763 | 35092 ft | 504 kts | 55° |
| 2026-04-14 13:52 | 25.54962 | -150.32164 | 35098 ft | 502 kts | 56° |
| 2026-04-14 13:52 | 25.58653 | -150.25600 | 35098 ft | 505 kts | 56° |
| 2026-04-14 13:53 | 25.62338 | -150.19038 | 35099 ft | 502 kts | 56° |
| 2026-04-14 13:53 | 25.66018 | -150.12476 | 35097 ft | 502 kts | 56° |
| 2026-04-14 13:54 | 25.69708 | -150.05884 | 35107 ft | 504 kts | 56° |
| 2026-04-14 13:54 | 25.73405 | -149.99272 | 35103 ft | 503 kts | 56° |
| 2026-04-14 13:55 | 25.77081 | -149.92690 | 35111 ft | 503 kts | 56° |
| 2026-04-14 13:55 | 25.80732 | -149.86140 | 35110 ft | 503 kts | 56° |
| 2026-04-14 13:56 | 25.84409 | -149.79535 | 35102 ft | 502 kts | 56° |
| 2026-04-14 13:56 | 25.88068 | -149.72951 | 35102 ft | 500 kts | 55° |
| 2026-04-14 13:57 | 25.91729 | -149.66356 | 35108 ft | 501 kts | 56° |
| 2026-04-14 13:57 | 25.95353 | -149.59817 | 35112 ft | 501 kts | 55° |
| 2026-04-14 13:58 | 25.99001 | -149.53230 | 35109 ft | 501 kts | 56° |
| 2026-04-14 13:58 | 26.02652 | -149.46626 | 35110 ft | 502 kts | 56° |
| 2026-04-14 13:59 | 26.06284 | -149.40042 | 35112 ft | 498 kts | 55° |
| 2026-04-14 13:59 | 26.09891 | -149.33498 | 35112 ft | 499 kts | 56° |
| 2026-04-14 14:00 | 26.13521 | -149.26901 | 35111 ft | 497 kts | 56° |
| 2026-04-14 14:00 | 26.17142 | -149.20314 | 35110 ft | 499 kts | 56° |
| 2026-04-14 14:01 | 26.20737 | -149.13763 | 35112 ft | 497 kts | 56° |
| 2026-04-14 14:01 | 26.24344 | -149.07184 | 35111 ft | 498 kts | 56° |
| 2026-04-14 14:02 | 26.27936 | -149.00619 | 35110 ft | 498 kts | 56° |
| 2026-04-14 14:02 | 26.31557 | -148.93993 | 35111 ft | 498 kts | 56° |
| 2026-04-14 14:03 | 26.35136 | -148.87431 | 35111 ft | 498 kts | 56° |
| 2026-04-14 14:03 | 26.38717 | -148.80858 | 35118 ft | 497 kts | 56° |
| 2026-04-14 14:04 | 26.42310 | -148.74254 | 35122 ft | 498 kts | 56° |
| 2026-04-14 14:04 | 26.45881 | -148.67680 | 35116 ft | 498 kts | 56° |
| 2026-04-14 14:05 | 26.49468 | -148.61069 | 35124 ft | 498 kts | 56° |
| 2026-04-14 14:05 | 26.53043 | -148.54468 | 35130 ft | 498 kts | 56° |
| 2026-04-14 14:06 | 26.56623 | -148.47850 | 35127 ft | 498 kts | 56° |
| 2026-04-14 14:06 | 26.60190 | -148.41246 | 35139 ft | 497 kts | 56° |
| 2026-04-14 14:07 | 26.63767 | -148.34611 | 35141 ft | 498 kts | 56° |
| 2026-04-14 14:07 | 26.67313 | -148.28027 | 35146 ft | 497 kts | 56° |
| 2026-04-14 14:08 | 26.70870 | -148.21413 | 35142 ft | 497 kts | 56° |
| 2026-04-14 14:08 | 26.74441 | -148.14760 | 35146 ft | 498 kts | 56° |
| 2026-04-14 14:09 | 26.77984 | -148.08150 | 35155 ft | 498 kts | 56° |
| 2026-04-14 14:09 | 26.81547 | -148.01492 | 35157 ft | 496 kts | 56° |
| 2026-04-14 14:10 | 26.85073 | -147.94896 | 35146 ft | 496 kts | 56° |
| 2026-04-14 14:10 | 26.88619 | -147.88251 | 35160 ft | 497 kts | 56° |
| 2026-04-14 14:11 | 26.92136 | -147.81650 | 35149 ft | 496 kts | 56° |
| 2026-04-14 14:11 | 26.95685 | -147.74982 | 35147 ft | 497 kts | 56° |
| 2026-04-14 14:12 | 26.99211 | -147.68347 | 35158 ft | 497 kts | 56° |
| 2026-04-14 14:12 | 27.02728 | -147.61714 | 35151 ft | 496 kts | 56° |
| 2026-04-14 14:13 | 27.06261 | -147.55046 | 35148 ft | 498 kts | 56° |
| 2026-04-14 14:13 | 27.09778 | -147.48395 | 35152 ft | 496 kts | 56° |
| 2026-04-14 14:14 | 27.13315 | -147.41696 | 35154 ft | 497 kts | 56° |
| 2026-04-14 14:14 | 27.16818 | -147.35053 | 35160 ft | 496 kts | 56° |
| 2026-04-14 14:15 | 27.20317 | -147.28406 | 35151 ft | 495 kts | 57° |
| 2026-04-14 14:15 | 27.23824 | -147.21735 | 35156 ft | 496 kts | 57° |
| 2026-04-14 14:16 | 27.27318 | -147.15079 | 35152 ft | 496 kts | 57° |
| 2026-04-14 14:16 | 27.30826 | -147.08389 | 35157 ft | 498 kts | 57° |
| 2026-04-14 14:17 | 27.36048 | -146.98398 | 35158 ft | 497 kts | 56° |
| 2026-04-14 14:17 | 27.39543 | -146.91702 | 35167 ft | 497 kts | 57° |
| 2026-04-14 14:18 | 27.43023 | -146.85022 | 35147 ft | 495 kts | 57° |
| 2026-04-14 14:18 | 27.46506 | -146.78328 | 35156 ft | 494 kts | 57° |
| 2026-04-14 14:19 | 27.49974 | -146.71657 | 35150 ft | 497 kts | 57° |
| 2026-04-14 14:19 | 27.53463 | -146.64932 | 35158 ft | 496 kts | 57° |
| 2026-04-14 14:20 | 27.56931 | -146.58234 | 35167 ft | 495 kts | 57° |
| 2026-04-14 14:20 | 27.60399 | -146.51527 | 35171 ft | 498 kts | 57° |
| 2026-04-14 14:21 | 27.63866 | -146.44812 | 35174 ft | 496 kts | 57° |
| 2026-04-14 14:21 | 27.67325 | -146.38103 | 35170 ft | 496 kts | 57° |
| 2026-04-14 14:22 | 27.70780 | -146.31396 | 35200 ft | 497 kts | 57° |
| 2026-04-14 14:22 | 27.74229 | -146.24687 | 35174 ft | 492 kts | 57° |
| 2026-04-14 14:23 | 27.77664 | -146.17993 | 35177 ft | 495 kts | 57° |
| 2026-04-14 14:23 | 27.81101 | -146.11284 | 35170 ft | 494 kts | 57° |
| 2026-04-14 14:24 | 27.84526 | -146.04601 | 35175 ft | 494 kts | 57° |
| 2026-04-14 14:24 | 27.87971 | -145.97875 | 35173 ft | 495 kts | 57° |
| 2026-04-14 14:25 | 27.91403 | -145.91148 | 35180 ft | 495 kts | 57° |
| 2026-04-14 14:25 | 27.94820 | -145.84436 | 35176 ft | 495 kts | 57° |
| 2026-04-14 14:26 | 27.98252 | -145.77702 | 35184 ft | 493 kts | 57° |
| 2026-04-14 14:26 | 28.01648 | -145.70995 | 35191 ft | 495 kts | 57° |
| 2026-04-14 14:27 | 28.05080 | -145.64241 | 35165 ft | 495 kts | 57° |
| 2026-04-14 14:27 | 28.08501 | -145.57524 | 35174 ft | 493 kts | 57° |
| 2026-04-14 14:28 | 28.11939 | -145.50812 | 35181 ft | 492 kts | 58° |
| 2026-04-14 14:28 | 28.15327 | -145.44061 | 35158 ft | 494 kts | 58° |
| 2026-04-14 14:29 | 28.18732 | -145.37305 | 35177 ft | 495 kts | 58° |
| 2026-04-14 14:29 | 28.22113 | -145.30531 | 35174 ft | 496 kts | 58° |
| 2026-04-14 14:30 | 28.25517 | -145.23727 | 35181 ft | 494 kts | 58° |
| 2026-04-14 14:30 | 28.28903 | -145.16968 | 35179 ft | 494 kts | 58° |
| 2026-04-14 14:31 | 28.32275 | -145.10228 | 35180 ft | 492 kts | 58° |
| 2026-04-14 14:31 | 28.35640 | -145.03496 | 35183 ft | 492 kts | 58° |
| 2026-04-14 14:32 | 28.39019 | -144.96729 | 35181 ft | 492 kts | 58° |
| 2026-04-14 14:32 | 28.42379 | -144.89983 | 35183 ft | 492 kts | 58° |
| 2026-04-14 14:33 | 28.45730 | -144.83243 | 35184 ft | 494 kts | 58° |
| 2026-04-14 14:33 | 28.49112 | -144.76425 | 35187 ft | 493 kts | 58° |
| 2026-04-14 14:34 | 28.54116 | -144.66289 | 35197 ft | 491 kts | 58° |
| 2026-04-14 14:35 | 28.57475 | -144.59489 | 35194 ft | 493 kts | 58° |
| 2026-04-14 14:35 | 28.60813 | -144.52713 | 35202 ft | 494 kts | 58° |
| 2026-04-14 14:36 | 28.64154 | -144.45900 | 35197 ft | 494 kts | 59° |
| 2026-04-14 14:36 | 28.67474 | -144.39105 | 35194 ft | 494 kts | 59° |
| 2026-04-14 14:37 | 28.70810 | -144.32306 | 35197 ft | 492 kts | 59° |
| 2026-04-14 14:37 | 28.74154 | -144.25470 | 35200 ft | 491 kts | 59° |
| 2026-04-14 14:38 | 28.77475 | -144.18672 | 35207 ft | 492 kts | 60° |
| 2026-04-14 14:38 | 28.80803 | -144.11845 | 35201 ft | 496 kts | 59° |
| 2026-04-14 14:39 | 28.84150 | -144.04980 | 35209 ft | 493 kts | 58° |
| 2026-04-14 14:39 | 28.87457 | -143.98171 | 35207 ft | 496 kts | 59° |
| 2026-04-14 14:40 | 28.90812 | -143.91292 | 35208 ft | 497 kts | 59° |
| 2026-04-14 14:40 | 28.94145 | -143.84428 | 35209 ft | 495 kts | 59° |
| 2026-04-14 14:41 | 28.97487 | -143.77525 | 35216 ft | 496 kts | 59° |
| 2026-04-14 14:41 | 29.00793 | -143.70683 | 35214 ft | 494 kts | 59° |
| 2026-04-14 14:42 | 29.04117 | -143.63806 | 35230 ft | 497 kts | 58° |
| 2026-04-14 14:42 | 29.07457 | -143.56882 | 35212 ft | 494 kts | 59° |
| 2026-04-14 14:43 | 29.10744 | -143.50037 | 35223 ft | 497 kts | 59° |
| 2026-04-14 14:43 | 29.14070 | -143.43106 | 35213 ft | 497 kts | 59° |
| 2026-04-14 14:44 | 29.17378 | -143.36203 | 35219 ft | 497 kts | 59° |
| 2026-04-14 14:44 | 29.20719 | -143.29222 | 35217 ft | 496 kts | 60° |
| 2026-04-14 14:45 | 29.24009 | -143.22295 | 35211 ft | 495 kts | 60° |
| 2026-04-14 14:45 | 29.27300 | -143.15419 | 35216 ft | 497 kts | 60° |
| 2026-04-14 14:46 | 29.30617 | -143.08485 | 35216 ft | 497 kts | 59° |
| 2026-04-14 14:46 | 29.33925 | -143.01532 | 35218 ft | 498 kts | 60° |
| 2026-04-14 14:47 | 29.37223 | -142.94571 | 35209 ft | 497 kts | 60° |
| 2026-04-14 14:47 | 29.40513 | -142.87614 | 35211 ft | 497 kts | 60° |
| 2026-04-14 14:48 | 29.43784 | -142.80690 | 35217 ft | 496 kts | 60° |
| 2026-04-14 14:48 | 29.47077 | -142.73712 | 35211 ft | 497 kts | 60° |
| 2026-04-14 14:49 | 29.50363 | -142.66744 | 35224 ft | 498 kts | 60° |
| 2026-04-14 14:49 | 29.53637 | -142.59787 | 35229 ft | 498 kts | 60° |
| 2026-04-14 14:50 | 29.56939 | -142.52763 | 35219 ft | 499 kts | 60° |
| 2026-04-14 14:50 | 29.60204 | -142.45798 | 35215 ft | 499 kts | 60° |
| 2026-04-14 14:51 | 29.63508 | -142.38739 | 35206 ft | 500 kts | 60° |
| 2026-04-14 14:51 | 29.66789 | -142.31718 | 35211 ft | 499 kts | 60° |
| 2026-04-14 14:52 | 29.70072 | -142.24693 | 35205 ft | 501 kts | 60° |
| 2026-04-14 14:52 | 29.73371 | -142.17636 | 35217 ft | 502 kts | 60° |
| 2026-04-14 14:53 | 29.76658 | -142.10576 | 35217 ft | 502 kts | 60° |
| 2026-04-14 14:53 | 29.79941 | -142.03497 | 35216 ft | 500 kts | 60° |
| 2026-04-14 14:54 | 29.83187 | -141.96402 | 35217 ft | 501 kts | 60° |
| 2026-04-14 14:54 | 29.86455 | -141.89262 | 35204 ft | 506 kts | 60° |
| 2026-04-14 14:55 | 29.89730 | -141.82198 | 35205 ft | 498 kts | 60° |
| 2026-04-14 14:55 | 29.93004 | -141.75150 | 35216 ft | 502 kts | 60° |
| 2026-04-14 14:56 | 29.97921 | -141.64510 | 35209 ft | 500 kts | 60° |
| 2026-04-14 14:56 | 30.01155 | -141.57449 | 35217 ft | 499 kts | 60° |
| 2026-04-14 14:57 | 30.04426 | -141.50304 | 35235 ft | 501 kts | 60° |
| 2026-04-14 14:57 | 30.07654 | -141.43184 | 35211 ft | 502 kts | 60° |
| 2026-04-14 14:58 | 30.10875 | -141.36085 | 35209 ft | 500 kts | 59° |
| 2026-04-14 14:58 | 30.14121 | -141.28920 | 35195 ft | 501 kts | 60° |
| 2026-04-14 14:59 | 30.17322 | -141.21857 | 35208 ft | 501 kts | 60° |
| 2026-04-14 14:59 | 30.20579 | -141.14681 | 35198 ft | 503 kts | 60° |
| 2026-04-14 15:00 | 30.23797 | -141.07573 | 35202 ft | 499 kts | 60° |
| 2026-04-14 15:00 | 30.27011 | -141.00467 | 35193 ft | 502 kts | 60° |
| 2026-04-14 15:01 | 30.30228 | -140.93333 | 35211 ft | 500 kts | 60° |
| 2026-04-14 15:01 | 30.33451 | -140.86185 | 35202 ft | 503 kts | 60° |
| 2026-04-14 15:02 | 30.36694 | -140.78987 | 35207 ft | 504 kts | 59° |
| 2026-04-14 15:02 | 30.39919 | -140.71819 | 35201 ft | 505 kts | 59° |
| 2026-04-14 15:03 | 30.43152 | -140.64607 | 35193 ft | 505 kts | 60° |
| 2026-04-14 15:03 | 30.46381 | -140.57367 | 35197 ft | 507 kts | 60° |
| 2026-04-14 15:04 | 30.49605 | -140.50125 | 35193 ft | 506 kts | 60° |
| 2026-04-14 15:04 | 30.52832 | -140.42860 | 35213 ft | 507 kts | 59° |
| 2026-04-14 15:05 | 30.56045 | -140.35584 | 35204 ft | 509 kts | 60° |
| 2026-04-14 15:05 | 30.59238 | -140.28325 | 35206 ft | 506 kts | 60° |
| 2026-04-14 15:06 | 30.62457 | -140.21017 | 35195 ft | 509 kts | 60° |
| 2026-04-14 15:06 | 30.65666 | -140.13718 | 35204 ft | 510 kts | 60° |
| 2026-04-14 15:07 | 30.68879 | -140.06395 | 35192 ft | 510 kts | 60° |
| 2026-04-14 15:07 | 30.69425 | -140.05153 | 35194 ft | 510 kts | 60° |